createdAt,value
2022-09-18T00:01:33.125Z,98871.00
2022-09-18T00:04:04.121Z,98880.00
2022-09-18T00:06:38.279Z,98870.00
2022-09-18T00:09:10.672Z,98867.00
2022-09-18T00:11:46.900Z,98879.00
2022-09-18T00:14:19.564Z,98881.00
2022-09-18T00:16:46.877Z,98886.00
2022-09-18T00:19:15.447Z,98885.00
2022-09-18T00:21:48.787Z,98885.00
2022-09-18T00:24:19.591Z,98876.00
2022-09-18T00:26:47.898Z,98882.00
2022-09-18T00:29:16.053Z,98890.00
2022-09-18T00:31:43.597Z,98884.00
2022-09-18T00:34:15.905Z,98883.00
2022-09-18T00:36:44.283Z,98870.00
2022-09-18T00:39:11.397Z,98874.00
2022-09-18T00:41:43.157Z,98862.00
2022-09-18T00:44:41.965Z,98863.00
2022-09-18T00:47:11.947Z,98875.00
2022-09-18T00:50:14.957Z,98868.00
2022-09-18T00:52:59.937Z,98862.00
2022-09-18T00:55:35.513Z,98861.00
2022-09-18T00:58:04.745Z,98858.00
2022-09-18T01:00:34.870Z,98857.00
2022-09-18T01:03:02.643Z,98852.00
2022-09-18T01:05:48.630Z,98846.00
2022-09-18T01:09:02.600Z,98848.00
2022-09-18T01:11:47.227Z,98844.00
2022-09-18T01:14:29.501Z,98842.00
2022-09-18T01:17:28.673Z,98839.00
2022-09-18T01:20:49.687Z,98837.00
2022-09-18T01:23:40.708Z,98847.00
2022-09-18T01:26:34.706Z,98850.00
2022-09-18T01:29:18.934Z,98846.00
2022-09-18T01:31:53.229Z,98852.00
2022-09-18T01:34:58.686Z,98855.00
2022-09-18T01:37:36.215Z,98850.00
2022-09-18T01:40:27.050Z,98845.00
2022-09-18T01:43:00.504Z,98856.00
2022-09-18T01:45:34.483Z,98847.00
2022-09-18T01:48:08.178Z,98851.00
2022-09-18T01:50:44.999Z,98853.00
2022-09-18T01:53:19.768Z,98859.00
2022-09-18T01:56:15.713Z,98858.00
2022-09-18T01:58:44.238Z,98860.00
2022-09-18T02:01:19.280Z,98861.00
2022-09-18T02:03:56.484Z,98854.00
2022-09-18T02:06:38.638Z,98862.00
2022-09-18T02:09:08.551Z,98858.00
2022-09-18T02:11:41.093Z,98863.00
2022-09-18T02:14:26.034Z,98860.00
2022-09-18T02:17:07.419Z,98853.00
2022-09-18T02:19:46.288Z,98854.00
2022-09-18T02:22:19.975Z,98844.00
2022-09-18T02:24:52.016Z,98866.00
2022-09-18T02:27:22.886Z,98858.00
2022-09-18T02:29:51.390Z,98855.00
2022-09-18T02:32:18.891Z,98860.00
2022-09-18T02:34:46.159Z,98863.00
2022-09-18T02:37:21.914Z,98861.00
2022-09-18T02:40:15.276Z,98860.00
2022-09-18T02:43:32.539Z,98853.00
2022-09-18T02:46:30.708Z,98855.00
2022-09-18T02:49:20.310Z,98853.00
2022-09-18T02:51:59.448Z,98851.00
2022-09-18T02:54:55.799Z,98852.00
2022-09-18T02:57:39.184Z,98851.00
2022-09-18T03:00:08.512Z,98846.00
2022-09-18T03:02:38.631Z,98855.00
2022-09-18T03:05:06.646Z,98851.00
2022-09-18T03:07:33.732Z,98855.00
2022-09-18T03:10:00.742Z,98860.00
2022-09-18T03:12:27.990Z,98867.00
2022-09-18T03:14:55.202Z,98856.00
2022-09-18T03:17:22.211Z,98857.00
2022-09-18T03:19:49.270Z,98850.00
2022-09-18T03:22:16.450Z,98855.00
2022-09-18T03:24:43.494Z,98847.00
2022-09-18T03:27:10.897Z,98853.00
2022-09-18T03:29:37.936Z,98849.00
2022-09-18T03:32:05.259Z,98847.00
2022-09-18T03:34:32.417Z,98850.00
2022-09-18T03:36:59.396Z,98849.00
2022-09-18T03:39:26.448Z,98845.00
2022-09-18T03:41:53.416Z,98849.00
2022-09-18T03:44:20.396Z,98851.00
2022-09-18T03:46:47.670Z,98850.00
2022-09-18T03:49:14.666Z,98860.00
2022-09-18T03:51:41.681Z,98859.00
2022-09-18T03:54:08.799Z,98851.00
2022-09-18T03:56:38.518Z,98848.00
2022-09-18T03:59:05.694Z,98863.00
2022-09-18T04:01:32.775Z,98860.00
2022-09-18T04:03:59.896Z,98863.00
2022-09-18T04:06:27.040Z,98869.00
2022-09-18T04:08:54.090Z,98867.00
2022-09-18T04:11:21.053Z,98862.00
2022-09-18T04:13:48.110Z,98870.00
2022-09-18T04:16:15.119Z,98876.00
2022-09-18T04:18:42.136Z,98876.00
2022-09-18T04:21:09.212Z,98870.00
2022-09-18T04:23:36.273Z,98876.00
2022-09-18T04:26:09.014Z,98892.00
2022-09-18T04:28:38.039Z,98889.00
2022-09-18T04:31:05.401Z,98887.00
2022-09-18T04:33:32.483Z,98888.00
2022-09-18T04:35:59.550Z,98872.00
2022-09-18T04:38:29.827Z,98892.00
2022-09-18T04:40:58.138Z,98894.00
2022-09-18T04:43:26.824Z,98897.00
2022-09-18T04:45:55.277Z,98903.00
2022-09-18T04:48:22.813Z,98867.00
2022-09-18T04:50:51.315Z,98901.00
2022-09-18T04:53:19.787Z,98895.00
2022-09-18T04:55:48.355Z,98897.00
2022-09-18T04:58:17.715Z,98897.00
2022-09-18T05:00:44.714Z,98897.00
2022-09-18T05:03:11.900Z,98896.00
2022-09-18T05:05:41.710Z,98897.00
2022-09-18T05:08:08.703Z,98908.00
2022-09-18T05:10:35.748Z,98894.00
2022-09-18T05:13:02.743Z,98897.00
2022-09-18T05:15:29.720Z,98895.00
2022-09-18T05:18:10.548Z,98892.00
2022-09-18T05:20:38.815Z,98895.00
2022-09-18T05:23:07.115Z,98894.00
2022-09-18T05:25:34.473Z,98903.00
2022-09-18T05:28:03.516Z,98901.00
2022-09-18T05:30:32.055Z,98905.00
2022-09-18T05:33:02.474Z,98902.00
2022-09-18T05:35:33.805Z,98905.00
2022-09-18T05:38:02.209Z,98907.00
2022-09-18T05:40:35.099Z,98899.00
2022-09-18T05:43:05.754Z,98906.00
2022-09-18T05:45:33.690Z,98901.00
2022-09-18T05:48:05.570Z,98902.00
2022-09-18T05:50:35.309Z,98898.00
2022-09-18T05:53:08.097Z,98900.00
2022-09-18T05:55:35.397Z,98894.00
2022-09-18T05:58:04.885Z,98903.00
2022-09-18T06:00:34.714Z,98897.00
2022-09-18T06:03:05.965Z,98893.00
2022-09-18T06:05:36.749Z,98893.00
2022-09-18T06:08:07.017Z,98896.00
2022-09-18T06:10:39.309Z,98902.00
2022-09-18T06:13:13.209Z,98897.00
2022-09-18T06:15:40.470Z,98897.00
2022-09-18T06:18:10.731Z,98905.00
2022-09-18T06:20:37.830Z,98905.00
2022-09-18T06:23:04.838Z,98912.00
2022-09-18T06:25:32.100Z,98896.00
2022-09-18T06:28:00.935Z,98902.00
2022-09-18T06:30:34.331Z,98893.00
2022-09-18T06:33:07.264Z,98899.00
2022-09-18T06:35:36.094Z,98898.00
2022-09-18T06:38:04.768Z,98895.00
2022-09-18T06:40:33.575Z,98893.00
2022-09-18T06:43:02.385Z,98890.00
2022-09-18T06:45:31.171Z,98906.00
2022-09-18T06:48:02.918Z,98895.00
2022-09-18T06:50:30.947Z,98899.00
2022-09-18T06:53:11.722Z,98897.00
2022-09-18T06:55:39.716Z,98891.00
2022-09-18T06:58:07.073Z,98874.00
2022-09-18T07:00:34.232Z,98892.00
2022-09-18T07:03:03.716Z,98876.00
2022-09-18T07:05:32.912Z,98881.00
2022-09-18T07:08:00.565Z,98880.00
2022-09-18T07:10:27.829Z,98892.00
2022-09-18T07:12:59.941Z,98891.00
2022-09-18T07:15:27.754Z,98893.00
2022-09-18T07:18:00.239Z,98874.00
2022-09-18T07:20:28.367Z,98892.00
2022-09-18T07:23:03.080Z,98893.00
2022-09-18T07:25:32.457Z,98887.00
2022-09-18T07:28:08.311Z,98894.00
2022-09-18T07:30:37.601Z,98894.00
2022-09-18T07:33:07.783Z,98895.00
2022-09-18T07:35:36.364Z,98896.00
2022-09-18T07:38:06.453Z,98894.00
2022-09-18T07:40:34.597Z,98890.00
2022-09-18T07:43:04.992Z,98888.00
2022-09-18T07:45:32.454Z,98891.00
2022-09-18T07:48:07.692Z,98897.00
2022-09-18T07:50:34.982Z,98889.00
2022-09-18T07:53:05.422Z,98907.00
2022-09-18T07:55:36.684Z,98904.00
2022-09-18T07:58:07.191Z,98901.00
2022-09-18T08:00:37.092Z,98904.00
2022-09-18T08:03:11.909Z,98903.00
2022-09-18T08:05:42.144Z,98914.00
2022-09-18T08:08:13.183Z,98916.00
2022-09-18T08:10:43.321Z,98916.00
2022-09-18T08:13:11.127Z,98917.00
2022-09-18T08:15:41.780Z,98913.00
2022-09-18T08:18:11.671Z,98910.00
2022-09-18T08:20:39.241Z,98916.00
2022-09-18T08:23:11.607Z,98912.00
2022-09-18T08:25:39.557Z,98912.00
2022-09-18T08:28:08.629Z,98924.00
2022-09-18T08:30:36.807Z,98918.00
2022-09-18T08:33:09.883Z,98920.00
2022-09-18T08:35:38.038Z,98923.00
2022-09-18T08:38:05.718Z,98922.00
2022-09-18T08:41:17.058Z,98921.00
2022-09-18T08:43:57.019Z,98927.00
2022-09-18T08:47:04.636Z,98933.00
2022-09-18T08:50:17.251Z,98927.00
2022-09-18T08:52:51.142Z,98933.00
2022-09-18T08:55:30.487Z,98918.00
2022-09-18T08:58:08.308Z,98924.00
2022-09-18T09:00:42.506Z,98922.00
2022-09-18T09:03:43.653Z,98944.00
2022-09-18T09:06:28.837Z,98932.00
2022-09-18T09:09:22.846Z,98932.00
2022-09-18T09:12:16.939Z,98933.00
2022-09-18T09:15:08.235Z,98937.00
2022-09-18T09:18:04.803Z,98935.00
2022-09-18T09:21:22.757Z,98930.00
2022-09-18T09:24:21.134Z,98927.00
2022-09-18T09:26:55.276Z,98935.00
2022-09-18T09:29:29.281Z,98943.00
2022-09-18T09:32:11.012Z,98928.00
2022-09-18T09:34:57.267Z,98939.00
2022-09-18T09:37:40.491Z,98941.00
2022-09-18T09:40:34.820Z,98937.00
2022-09-18T09:43:29.815Z,98957.00
2022-09-18T09:46:10.180Z,98943.00
2022-09-18T09:49:01.233Z,98950.00
2022-09-18T09:51:37.513Z,98948.00
2022-09-18T09:54:12.689Z,98958.00
2022-09-18T09:57:07.892Z,98949.00
2022-09-18T10:00:22.147Z,98950.00
2022-09-18T10:03:01.860Z,98953.00
2022-09-18T10:06:03.726Z,98952.00
2022-09-18T10:08:45.907Z,98965.00
2022-09-18T10:11:14.811Z,98967.00
2022-09-18T10:14:00.107Z,98969.00
2022-09-18T10:16:33.725Z,98978.00
2022-09-18T10:19:02.128Z,98971.00
2022-09-18T10:21:36.208Z,98969.00
2022-09-18T10:24:31.866Z,98976.00
2022-09-18T10:27:07.661Z,98980.00
2022-09-18T10:29:36.180Z,98984.00
2022-09-18T10:32:07.657Z,98984.00
2022-09-18T10:34:46.788Z,98988.00
2022-09-18T10:37:15.085Z,98994.00
2022-09-18T10:39:55.764Z,98985.00
2022-09-18T10:42:26.816Z,98993.00
2022-09-18T10:45:01.788Z,98997.00
2022-09-18T10:47:37.021Z,98995.00
2022-09-18T10:50:06.978Z,99001.00
2022-09-18T10:52:38.859Z,98999.00
2022-09-18T10:55:06.360Z,99001.00
2022-09-18T10:57:39.141Z,99011.00
2022-09-18T11:00:21.273Z,99001.00
2022-09-18T11:03:01.183Z,99010.00
2022-09-18T11:05:37.169Z,99005.00
2022-09-18T11:08:17.485Z,99003.00
2022-09-18T11:11:19.754Z,99006.00
2022-09-18T11:14:01.556Z,99003.00
2022-09-18T11:16:38.877Z,98996.00
2022-09-18T11:19:11.060Z,98994.00
2022-09-18T11:21:52.497Z,98998.00
2022-09-18T11:24:31.372Z,98998.00
2022-09-18T11:27:01.779Z,98996.00
2022-09-18T11:29:39.846Z,99003.00
2022-09-18T11:32:29.401Z,99000.00
2022-09-18T11:35:04.214Z,98999.00
2022-09-18T11:37:33.749Z,98997.00
2022-09-18T11:40:22.012Z,98998.00
2022-09-18T11:42:54.157Z,99003.00
2022-09-18T11:45:49.060Z,98996.00
2022-09-18T11:48:39.287Z,98982.00
2022-09-18T11:51:18.898Z,98986.00
2022-09-18T11:53:55.412Z,98972.00
2022-09-18T11:56:40.846Z,98978.00
2022-09-18T11:59:46.550Z,98978.00
2022-09-18T12:02:35.682Z,98972.00
2022-09-18T12:05:24.704Z,98967.00
2022-09-18T12:08:21.809Z,98975.00
2022-09-18T12:11:04.936Z,98982.00
2022-09-18T12:13:45.412Z,98981.00
2022-09-18T12:16:50.056Z,98979.00
2022-09-18T12:19:48.353Z,98986.00
2022-09-18T12:22:30.347Z,98998.00
2022-09-18T12:25:00.527Z,98991.00
2022-09-18T12:28:07.187Z,98999.00
2022-09-18T12:30:57.452Z,98992.00
2022-09-18T12:33:34.539Z,98979.00
2022-09-18T12:36:10.504Z,98987.00
2022-09-18T12:39:14.083Z,98990.00
2022-09-18T12:42:27.097Z,98990.00
2022-09-18T12:45:32.206Z,98986.00
2022-09-18T12:48:38.657Z,98998.00
2022-09-18T12:51:29.926Z,99006.00
2022-09-18T12:54:15.315Z,98989.00
2022-09-18T12:57:05.888Z,98991.00
2022-09-18T13:00:12.737Z,98991.00
2022-09-18T13:02:52.595Z,99005.00
2022-09-18T13:05:43.882Z,99010.00
2022-09-18T13:08:28.038Z,99004.00
2022-09-18T13:11:03.662Z,99004.00
2022-09-18T13:14:14.634Z,98996.00
2022-09-18T13:17:11.295Z,98979.00
2022-09-18T13:20:15.954Z,98992.00
2022-09-18T13:22:49.164Z,98989.00
2022-09-18T13:25:30.044Z,99008.00
2022-09-18T13:28:02.140Z,99005.00
2022-09-18T13:30:33.832Z,99010.00
2022-09-18T13:33:03.898Z,99016.00
2022-09-18T13:35:39.966Z,99019.00
2022-09-18T13:38:14.729Z,99022.00
2022-09-18T13:41:03.894Z,99020.00
2022-09-18T13:43:35.144Z,99031.00
2022-09-18T13:46:07.154Z,99034.00
2022-09-18T13:48:40.670Z,99041.00
2022-09-18T13:51:23.374Z,99044.00
2022-09-18T13:54:34.771Z,99041.00
2022-09-18T13:57:14.872Z,99040.00
2022-09-18T13:59:48.083Z,99037.00
2022-09-18T14:02:36.254Z,99030.00
2022-09-18T14:05:28.507Z,99030.00
2022-09-18T14:08:04.581Z,99041.00
2022-09-18T14:10:38.559Z,99028.00
2022-09-18T14:13:38.057Z,99032.00
2022-09-18T14:16:20.346Z,99038.00
2022-09-18T14:18:47.626Z,99034.00
2022-09-18T14:21:17.762Z,99032.00
2022-09-18T14:23:47.977Z,99037.00
2022-09-18T14:26:37.643Z,99033.00
2022-09-18T14:29:10.372Z,99032.00
2022-09-18T14:31:52.116Z,99040.00
2022-09-18T14:34:34.230Z,99034.00
2022-09-18T14:37:20.220Z,99029.00
2022-09-18T14:39:47.625Z,99026.00
2022-09-18T14:42:36.591Z,99028.00
2022-09-18T14:45:13.052Z,99037.00
2022-09-18T14:47:47.124Z,99033.00
2022-09-18T14:50:30.879Z,99038.00
2022-09-18T14:53:01.981Z,99043.00
2022-09-18T14:55:53.978Z,99052.00
2022-09-18T14:58:28.493Z,99043.00
2022-09-18T15:00:56.740Z,99041.00
2022-09-18T15:03:32.585Z,99052.00
2022-09-18T15:06:40.314Z,99048.00
2022-09-18T15:09:13.129Z,99014.00
2022-09-18T15:12:01.889Z,99053.00
2022-09-18T15:14:44.017Z,99059.00
2022-09-18T15:17:20.333Z,99054.00
2022-09-18T15:20:03.361Z,99058.00
2022-09-18T15:22:30.794Z,99061.00
2022-09-18T15:25:00.947Z,99062.00
2022-09-18T15:27:32.093Z,99061.00
2022-09-18T15:30:08.119Z,99072.00
2022-09-18T15:32:43.506Z,99056.00
2022-09-18T15:35:25.950Z,99061.00
2022-09-18T15:38:04.147Z,99067.00
2022-09-18T15:40:39.551Z,99070.00
2022-09-18T15:43:40.956Z,99072.00
2022-09-18T15:46:12.437Z,99080.00
2022-09-18T15:48:48.225Z,99085.00
2022-09-18T15:51:25.288Z,99077.00
2022-09-18T15:54:10.808Z,99087.00
2022-09-18T15:56:58.339Z,99082.00
2022-09-18T15:59:38.056Z,99082.00
2022-09-18T16:02:29.251Z,99086.00
2022-09-18T16:04:56.457Z,99095.00
2022-09-18T16:07:29.679Z,99077.00
2022-09-18T16:09:57.341Z,99082.00
2022-09-18T16:12:41.893Z,99087.00
2022-09-18T16:15:25.645Z,99082.00
2022-09-18T16:18:02.032Z,99091.00
2022-09-18T16:20:39.682Z,99092.00
2022-09-18T16:23:24.346Z,99091.00
2022-09-18T16:26:19.998Z,99093.00
2022-09-18T16:28:59.075Z,99096.00
2022-09-18T16:31:31.045Z,99095.00
2022-09-18T16:34:19.898Z,99097.00
2022-09-18T16:36:48.333Z,99099.00
2022-09-18T16:39:19.276Z,99091.00
2022-09-18T16:41:47.107Z,99085.00
2022-09-18T16:44:15.814Z,99057.00
2022-09-18T16:46:49.920Z,99086.00
2022-09-18T16:49:42.767Z,99088.00
2022-09-18T16:52:11.507Z,99087.00
2022-09-18T16:54:38.744Z,99091.00
2022-09-18T16:57:20.432Z,99077.00
2022-09-18T16:59:50.634Z,99078.00
2022-09-18T17:02:24.265Z,99092.00
2022-09-18T17:04:52.954Z,99093.00
2022-09-18T17:07:20.015Z,99104.00
2022-09-18T17:09:47.109Z,99095.00
2022-09-18T17:12:14.152Z,99096.00
2022-09-18T17:14:41.414Z,99094.00
2022-09-18T17:17:08.986Z,99101.00
2022-09-18T17:19:37.146Z,99099.00
2022-09-18T17:22:04.396Z,99099.00
2022-09-18T17:24:38.811Z,99095.00
2022-09-18T17:27:06.001Z,99094.00
2022-09-18T17:29:33.541Z,99099.00
2022-09-18T17:32:03.207Z,99096.00
2022-09-18T17:34:39.789Z,99097.00
2022-09-18T17:37:09.624Z,99092.00
2022-09-18T17:39:37.272Z,99098.00
2022-09-18T17:42:04.697Z,99089.00
2022-09-18T17:44:34.464Z,99092.00
2022-09-18T17:47:01.657Z,99093.00
2022-09-18T17:49:32.453Z,99083.00
2022-09-18T17:52:00.316Z,99089.00
2022-09-18T17:54:27.995Z,99099.00
2022-09-18T17:56:55.923Z,99099.00
2022-09-18T17:59:23.042Z,99100.00
2022-09-18T18:01:50.776Z,99092.00
2022-09-18T18:04:18.120Z,99102.00
2022-09-18T18:06:49.063Z,99107.00
2022-09-18T18:09:16.614Z,99101.00
2022-09-18T18:11:46.179Z,99096.00
2022-09-18T18:14:16.218Z,99094.00
2022-09-18T18:16:43.755Z,99103.00
2022-09-18T18:19:12.957Z,99102.00
2022-09-18T18:21:42.409Z,99101.00
2022-09-18T18:24:15.653Z,99104.00
2022-09-18T18:26:44.961Z,99101.00
2022-09-18T18:29:16.994Z,99101.00
2022-09-18T18:31:45.988Z,99106.00
2022-09-18T18:34:13.731Z,99085.00
2022-09-18T18:36:50.126Z,99095.00
2022-09-18T18:39:20.098Z,99094.00
2022-09-18T18:41:47.774Z,99099.00
2022-09-18T18:44:15.633Z,99094.00
2022-09-18T18:46:43.507Z,99076.00
2022-09-18T18:49:15.071Z,99102.00
2022-09-18T18:51:48.152Z,99092.00
2022-09-18T18:54:17.706Z,99104.00
2022-09-18T19:08:32.102Z,99100.00
2022-09-18T19:11:01.193Z,99100.00
2022-09-18T19:13:30.027Z,99101.00
2022-09-18T19:15:57.504Z,99104.00
2022-09-18T19:18:24.731Z,99095.00
2022-09-18T19:20:53.703Z,99096.00
2022-09-18T19:23:21.029Z,99092.00
2022-09-18T19:25:48.248Z,99094.00
2022-09-18T19:28:17.143Z,99091.00
2022-09-18T19:30:47.482Z,99066.00
2022-09-18T19:33:17.260Z,99088.00
2022-09-18T19:35:44.589Z,99092.00
2022-09-18T19:38:19.839Z,99084.00
2022-09-18T19:40:50.988Z,99088.00
2022-09-18T19:43:28.881Z,99091.00
2022-09-18T19:45:55.935Z,99089.00
2022-09-18T19:48:27.056Z,99083.00
2022-09-18T19:50:54.812Z,99083.00
2022-09-18T19:53:22.909Z,99086.00
2022-09-18T19:55:50.045Z,99085.00
2022-09-18T19:58:17.916Z,99058.00
2022-09-18T20:00:46.626Z,99087.00
2022-09-18T20:03:15.382Z,99071.00
2022-09-18T20:05:43.151Z,99081.00
2022-09-18T20:08:11.415Z,99082.00
2022-09-18T20:10:40.698Z,99066.00
2022-09-18T20:13:09.840Z,99084.00
2022-09-18T20:15:37.155Z,99085.00
2022-09-18T20:18:07.182Z,99084.00
2022-09-18T20:20:37.359Z,99082.00
2022-09-18T20:23:07.424Z,99085.00
2022-09-18T20:25:36.249Z,99076.00
2022-09-18T20:28:03.432Z,99071.00
2022-09-18T20:30:30.611Z,99086.00
2022-09-18T20:32:57.675Z,99073.00
2022-09-18T20:35:24.826Z,99081.00
2022-09-18T20:37:51.915Z,99069.00
2022-09-18T20:40:19.225Z,99076.00
2022-09-18T20:42:51.567Z,99067.00
2022-09-18T20:45:19.335Z,99079.00
2022-09-18T20:47:47.247Z,99082.00
2022-09-18T20:50:17.145Z,99084.00
2022-09-18T20:52:45.264Z,99076.00
2022-09-18T20:55:17.472Z,99077.00
2022-09-18T20:57:46.350Z,99077.00
2022-09-18T21:00:16.195Z,99086.00
2022-09-18T21:02:44.273Z,99083.00
2022-09-18T21:05:15.330Z,99075.00
2022-09-18T21:07:45.747Z,99066.00
2022-09-18T21:10:14.637Z,99083.00
2022-09-18T21:12:41.850Z,99088.00
2022-09-18T21:15:16.135Z,99060.00
2022-09-18T21:17:43.256Z,99075.00
2022-09-18T21:20:11.027Z,99080.00
2022-09-18T21:23:01.662Z,99084.00
2022-09-18T21:25:31.088Z,99077.00
2022-09-18T21:27:58.280Z,99077.00
2022-09-18T21:30:26.659Z,99081.00
2022-09-18T21:32:55.789Z,99094.00
2022-09-18T21:35:23.063Z,99084.00
2022-09-18T21:37:50.062Z,99093.00
2022-09-18T21:40:17.199Z,99086.00
2022-09-18T21:42:47.646Z,99092.00
2022-09-18T21:45:19.596Z,99095.00
2022-09-18T21:47:48.089Z,99089.00
2022-09-18T21:50:15.515Z,99072.00
2022-09-18T21:52:45.287Z,99092.00
2022-09-18T21:55:12.357Z,99086.00
2022-09-18T21:57:39.501Z,99091.00
2022-09-18T22:00:09.336Z,99078.00
2022-09-18T22:02:36.585Z,99094.00
2022-09-18T22:05:08.247Z,99093.00
2022-09-18T22:07:35.650Z,99094.00
2022-09-18T22:10:02.688Z,99097.00
2022-09-18T22:12:33.861Z,99091.00
2022-09-18T22:15:00.977Z,99094.00
2022-09-18T22:17:28.339Z,99098.00
2022-09-18T22:19:56.566Z,99097.00
2022-09-18T22:22:23.697Z,99088.00
2022-09-18T22:24:50.770Z,99099.00
2022-09-18T22:27:18.131Z,99096.00
2022-09-18T22:29:45.124Z,99106.00
2022-09-18T22:32:12.191Z,99097.00
2022-09-18T22:34:41.703Z,99102.00
2022-09-18T22:37:10.190Z,99104.00
2022-09-18T22:39:37.220Z,99108.00
2022-09-18T22:42:04.431Z,99103.00
2022-09-18T22:44:31.476Z,99108.00
2022-09-18T22:46:58.551Z,99107.00
2022-09-18T22:49:25.610Z,99106.00
2022-09-18T22:51:52.832Z,99086.00
2022-09-18T22:54:26.001Z,99102.00
2022-09-18T22:56:57.048Z,99104.00
2022-09-18T22:59:26.782Z,99107.00
2022-09-18T23:02:02.351Z,99110.00
2022-09-18T23:04:31.733Z,99097.00
2022-09-18T23:06:59.510Z,99104.00
2022-09-18T23:09:27.971Z,99103.00
2022-09-18T23:11:55.999Z,99103.00
2022-09-18T23:14:27.869Z,99092.00
2022-09-18T23:16:57.376Z,99103.00
2022-09-18T23:19:30.715Z,99109.00
2022-09-18T23:21:58.420Z,99086.00
2022-09-18T23:24:26.341Z,99106.00
2022-09-18T23:26:56.850Z,99111.00
2022-09-18T23:29:26.819Z,99088.00
2022-09-18T23:31:57.426Z,99104.00
2022-09-18T23:34:31.662Z,99102.00
2022-09-18T23:36:59.638Z,99097.00
2022-09-18T23:39:33.892Z,99091.00
2022-09-18T23:42:03.269Z,99102.00
2022-09-18T23:44:31.765Z,99099.00
2022-09-18T23:47:00.055Z,99111.00
2022-09-18T23:49:28.099Z,99094.00
2022-09-18T23:51:56.192Z,99088.00
2022-09-18T23:54:27.782Z,99097.00
2022-09-18T23:56:55.526Z,99096.00
2022-09-18T23:59:25.319Z,99093.00
